createdAt,value
2018-10-03T00:01:48.695Z,3.07
2018-10-03T00:04:17.585Z,3.80
2018-10-03T00:06:46.410Z,3.70
2018-10-03T00:09:15.278Z,3.30
2018-10-03T00:11:44.194Z,2.37
2018-10-03T00:17:09.837Z,3.07
2018-10-03T00:19:39.056Z,2.93
2018-10-03T00:22:07.881Z,3.30
2018-10-03T00:24:36.742Z,2.67
2018-10-03T00:27:05.794Z,3.70
2018-10-03T00:29:34.574Z,2.17
2018-10-03T00:32:04.060Z,3.47
2018-10-03T00:34:32.890Z,3.47
2018-10-03T00:37:01.689Z,2.67
2018-10-03T00:39:30.750Z,3.83
2018-10-03T00:41:59.591Z,3.30
2018-10-03T00:44:28.430Z,4.00
2018-10-03T00:46:57.257Z,2.93
2018-10-03T00:49:28.661Z,2.63
2018-10-03T00:51:57.643Z,4.23
2018-10-03T00:54:26.451Z,3.03
2018-10-03T00:56:55.521Z,2.77
2018-10-03T00:59:24.414Z,3.07
2018-10-03T01:01:53.229Z,3.33
2018-10-03T01:04:22.039Z,3.33
2018-10-03T01:06:50.874Z,2.73
2018-10-03T01:09:19.680Z,3.07
2018-10-03T01:11:48.514Z,2.77
2018-10-03T01:14:17.323Z,3.27
2018-10-03T01:16:46.347Z,2.53
2018-10-03T01:19:15.156Z,3.20
2018-10-03T01:21:43.942Z,3.03
2018-10-03T01:24:12.789Z,3.27
2018-10-03T01:26:41.595Z,2.70
2018-10-03T01:29:10.410Z,2.40
2018-10-03T01:31:39.253Z,3.47
2018-10-03T01:34:08.059Z,2.57
2018-10-03T01:36:36.900Z,3.30
2018-10-03T01:39:07.562Z,2.83
2018-10-03T01:41:36.560Z,3.37
2018-10-03T01:44:05.385Z,3.03
2018-10-03T01:46:34.197Z,4.37
2018-10-03T01:49:03.033Z,3.50
2018-10-03T01:51:32.266Z,3.17
2018-10-03T01:54:01.150Z,2.87
2018-10-03T01:56:30.347Z,2.90
2018-10-03T01:58:59.211Z,3.27
2018-10-03T02:01:28.055Z,2.63
2018-10-03T02:03:56.870Z,2.77
2018-10-03T02:06:25.681Z,3.20
2018-10-03T02:08:54.785Z,3.50
2018-10-03T02:11:23.646Z,2.63
2018-10-03T02:13:52.475Z,2.67
2018-10-03T02:16:21.268Z,2.40
2018-10-03T02:18:53.811Z,2.60
2018-10-03T02:21:22.765Z,2.03
2018-10-03T02:23:51.662Z,3.10
2018-10-03T02:26:20.469Z,2.43
2018-10-03T02:28:49.293Z,2.27
2018-10-03T02:31:18.106Z,3.70
2018-10-03T02:33:46.926Z,2.50
2018-10-03T02:36:15.786Z,2.33
2018-10-03T02:38:44.646Z,1.80
2018-10-03T02:41:13.459Z,2.70
2018-10-03T02:43:42.281Z,2.13
2018-10-03T02:46:11.085Z,2.40
2018-10-03T02:48:39.934Z,1.97
2018-10-03T02:51:08.741Z,3.20
2018-10-03T02:53:37.549Z,2.43
2018-10-03T02:56:06.548Z,3.20
2018-10-03T02:58:35.370Z,2.63
2018-10-03T03:01:04.215Z,3.00
2018-10-03T03:03:33.102Z,2.90
2018-10-03T03:06:01.916Z,2.43
2018-10-03T03:08:30.757Z,3.13
2018-10-03T03:10:59.562Z,3.07
2018-10-03T03:13:28.410Z,3.13
2018-10-03T03:15:57.256Z,3.30
2018-10-03T03:18:26.065Z,2.50
2018-10-03T03:20:55.184Z,3.50
2018-10-03T03:23:25.192Z,2.50
2018-10-03T03:25:54.034Z,3.23
2018-10-03T03:28:22.859Z,2.50
2018-10-03T03:30:51.696Z,2.93
2018-10-03T03:33:20.522Z,2.77
2018-10-03T03:35:49.359Z,2.17
2018-10-03T03:38:18.686Z,2.83
2018-10-03T03:40:47.524Z,3.03
2018-10-03T03:43:16.384Z,2.57
2018-10-03T03:45:45.218Z,2.60
2018-10-03T03:48:14.234Z,2.77
2018-10-03T03:50:43.074Z,2.37
2018-10-03T03:53:11.926Z,2.30
2018-10-03T03:55:40.786Z,2.33
2018-10-03T03:58:09.666Z,2.17
2018-10-03T04:00:38.477Z,2.53
2018-10-03T04:03:07.276Z,2.17
2018-10-03T04:05:36.085Z,2.23
2018-10-03T04:08:04.869Z,2.93
2018-10-03T04:10:33.654Z,2.23
2018-10-03T04:13:02.506Z,1.83
2018-10-03T04:15:31.342Z,2.43
2018-10-03T04:18:00.198Z,2.37
2018-10-03T04:20:29.095Z,2.60
2018-10-03T04:22:57.913Z,2.00
2018-10-03T04:25:26.833Z,2.07
2018-10-03T04:27:55.649Z,2.70
2018-10-03T04:30:24.899Z,2.20
2018-10-03T04:32:54.132Z,1.93
2018-10-03T04:35:22.984Z,2.17
2018-10-03T04:37:51.785Z,1.80
2018-10-03T04:40:20.649Z,2.60
2018-10-03T04:42:49.424Z,1.60
2018-10-03T04:45:18.253Z,2.77
2018-10-03T04:47:47.181Z,2.10
2018-10-03T04:50:16.031Z,2.33
2018-10-03T04:52:44.817Z,2.47
2018-10-03T04:55:14.144Z,2.10
2018-10-03T04:57:43.545Z,2.10
2018-10-03T05:00:12.418Z,4.07
2018-10-03T05:02:41.209Z,2.43
2018-10-03T05:05:10.039Z,2.07
2018-10-03T05:07:42.415Z,1.80
2018-10-03T05:10:11.425Z,1.50
2018-10-03T05:12:40.368Z,1.93
2018-10-03T05:15:09.179Z,2.40
2018-10-03T05:17:38.613Z,2.20
2018-10-03T05:20:07.414Z,1.80
2018-10-03T05:22:36.559Z,1.70
2018-10-03T05:25:05.530Z,2.33
2018-10-03T05:27:34.501Z,2.00
2018-10-03T05:30:03.329Z,1.93
2018-10-03T05:32:32.145Z,2.00
2018-10-03T05:35:01.124Z,1.77
2018-10-03T05:37:29.912Z,2.10
2018-10-03T05:39:58.854Z,2.13
2018-10-03T05:42:27.662Z,1.63
2018-10-03T05:44:56.598Z,1.57
2018-10-03T05:47:25.418Z,1.43
2018-10-03T05:49:54.367Z,1.90
2018-10-03T05:52:25.356Z,1.90
2018-10-03T05:54:54.197Z,1.53
2018-10-03T05:57:23.208Z,1.63
2018-10-03T05:59:52.205Z,1.87
2018-10-03T06:02:22.128Z,1.70
2018-10-03T06:04:51.088Z,1.97
2018-10-03T06:07:19.933Z,2.23
2018-10-03T06:09:48.749Z,1.70
2018-10-03T06:12:17.675Z,2.20
2018-10-03T06:14:47.692Z,1.80
2018-10-03T06:17:16.684Z,1.87
2018-10-03T06:19:45.523Z,2.30
2018-10-03T06:22:14.388Z,1.60
2018-10-03T06:24:43.328Z,2.23
2018-10-03T06:27:12.196Z,1.67
2018-10-03T06:29:41.050Z,1.80
2018-10-03T06:32:10.123Z,2.63
2018-10-03T06:34:39.066Z,2.03
2018-10-03T06:37:07.925Z,2.30
2018-10-03T06:39:37.219Z,2.13
2018-10-03T06:42:06.046Z,1.73
2018-10-03T06:44:34.870Z,2.57
2018-10-03T06:47:03.709Z,2.00
2018-10-03T06:49:32.526Z,2.43
2018-10-03T06:52:01.385Z,2.50
2018-10-03T06:54:30.399Z,1.60
2018-10-03T06:56:59.446Z,1.60
2018-10-03T06:59:28.238Z,2.07
2018-10-03T07:01:57.107Z,1.77
2018-10-03T07:04:25.901Z,2.30
2018-10-03T07:06:54.941Z,1.40
2018-10-03T07:09:23.805Z,2.10
2018-10-03T07:11:52.626Z,1.87
2018-10-03T07:14:21.454Z,2.47
2018-10-03T07:16:50.333Z,2.10
2018-10-03T07:19:19.174Z,1.83
2018-10-03T07:21:48.014Z,2.30
2018-10-03T07:24:18.010Z,2.03
2018-10-03T07:26:47.012Z,2.13
2018-10-03T07:29:16.035Z,1.83
2018-10-03T07:31:44.909Z,2.50
2018-10-03T07:34:13.792Z,2.13
2018-10-03T07:36:42.801Z,2.20
2018-10-03T07:39:14.630Z,1.73
2018-10-03T07:41:43.480Z,2.07
2018-10-03T07:44:12.484Z,2.30
2018-10-03T07:46:41.256Z,1.77
2018-10-03T07:49:10.072Z,1.97
2018-10-03T07:51:38.851Z,1.67
2018-10-03T07:54:07.742Z,2.10
2018-10-03T07:56:36.594Z,1.87
2018-10-03T07:59:05.597Z,1.70
2018-10-03T08:01:34.507Z,1.90
2018-10-03T08:04:03.370Z,2.40
2018-10-03T08:06:32.184Z,2.00
2018-10-03T08:09:01.054Z,1.77
2018-10-03T08:11:29.886Z,2.20
2018-10-03T08:13:58.688Z,2.13
2018-10-03T08:16:27.503Z,2.30
2018-10-03T08:18:56.309Z,1.73
2018-10-03T08:21:25.493Z,2.00
2018-10-03T08:23:54.306Z,1.67
2018-10-03T08:26:23.144Z,1.70
2018-10-03T08:28:51.970Z,1.67
2018-10-03T08:31:21.506Z,1.80
2018-10-03T08:33:50.588Z,2.13
2018-10-03T08:36:19.425Z,1.60
2018-10-03T08:38:48.311Z,2.17
2018-10-03T08:41:18.490Z,1.73
2018-10-03T08:43:47.458Z,1.13
2018-10-03T08:46:16.285Z,1.70
2018-10-03T08:48:45.058Z,2.30
2018-10-03T08:51:13.866Z,1.70
2018-10-03T08:53:42.723Z,2.13
2018-10-03T08:56:11.582Z,2.10
2018-10-03T08:58:40.685Z,2.17
2018-10-03T09:01:10.010Z,1.60
2018-10-03T09:03:38.971Z,2.13
2018-10-03T09:06:07.782Z,2.03
2018-10-03T09:08:36.604Z,2.60
2018-10-03T09:11:05.551Z,1.80
2018-10-03T09:13:34.389Z,1.90
2018-10-03T09:16:03.218Z,2.03
2018-10-03T09:18:32.178Z,2.43
2018-10-03T09:21:01.027Z,2.27
2018-10-03T09:23:29.858Z,1.93
2018-10-03T09:26:02.215Z,1.90
2018-10-03T09:28:31.251Z,2.60
2018-10-03T09:30:59.984Z,2.33
2018-10-03T09:33:28.806Z,2.73
2018-10-03T09:35:57.632Z,2.23
2018-10-03T09:38:26.455Z,2.67
2018-10-03T09:40:55.289Z,2.03
2018-10-03T09:43:24.163Z,1.77
2018-10-03T09:45:52.987Z,2.70
2018-10-03T09:48:21.839Z,2.17
2018-10-03T09:50:50.626Z,1.83
2018-10-03T09:53:19.445Z,2.10
2018-10-03T09:55:49.068Z,2.27
2018-10-03T09:58:17.953Z,2.00
2018-10-03T10:00:52.305Z,2.03
2018-10-03T10:03:21.098Z,1.80
2018-10-03T10:05:49.963Z,1.50
2018-10-03T10:08:18.756Z,2.43
2018-10-03T10:10:50.020Z,2.43
2018-10-03T10:13:18.824Z,2.20
2018-10-03T10:15:47.826Z,2.00
2018-10-03T10:18:16.993Z,2.40
2018-10-03T10:20:46.103Z,1.93
2018-10-03T10:23:15.098Z,1.80
2018-10-03T10:25:44.089Z,1.80
2018-10-03T10:28:12.938Z,1.83
2018-10-03T10:30:41.754Z,2.40
2018-10-03T10:33:10.800Z,1.87
2018-10-03T10:35:39.398Z,1.37
2018-10-03T10:38:08.245Z,2.07
2018-10-03T10:40:37.178Z,2.17
2018-10-03T10:43:05.912Z,1.90
2018-10-03T10:45:34.850Z,1.87
2018-10-03T10:48:03.922Z,1.90
2018-10-03T10:50:32.761Z,2.30
2018-10-03T10:53:01.609Z,2.17
2018-10-03T10:55:30.418Z,1.93
2018-10-03T10:57:59.282Z,1.83
2018-10-03T11:00:28.097Z,1.63
2018-10-03T11:02:57.069Z,2.20
2018-10-03T11:05:25.921Z,1.70
2018-10-03T11:07:56.403Z,2.30
2018-10-03T11:10:25.201Z,1.80
2018-10-03T11:12:54.051Z,1.57
2018-10-03T11:15:22.921Z,2.10
2018-10-03T11:17:51.814Z,1.90
2018-10-03T11:20:20.690Z,1.53
2018-10-03T11:22:49.590Z,2.30
2018-10-03T11:25:18.535Z,2.20
2018-10-03T11:27:47.442Z,2.00
2018-10-03T11:30:16.671Z,1.80
2018-10-03T11:32:45.509Z,2.10
2018-10-03T11:35:18.061Z,1.97
2018-10-03T11:37:47.058Z,2.20
2018-10-03T11:40:15.959Z,1.60
2018-10-03T11:42:44.813Z,2.67
2018-10-03T11:45:13.993Z,1.90
2018-10-03T11:47:42.865Z,2.70
2018-10-03T11:50:11.786Z,2.33
2018-10-03T11:52:40.631Z,1.63
2018-10-03T11:55:09.484Z,1.80
2018-10-03T11:57:38.298Z,1.60
2018-10-03T12:00:07.121Z,2.20
2018-10-03T12:02:36.009Z,2.20
2018-10-03T12:05:04.922Z,1.57
2018-10-03T12:07:33.878Z,1.90
2018-10-03T12:10:02.702Z,1.67
2018-10-03T12:12:31.517Z,1.90
2018-10-03T12:15:00.331Z,1.90
2018-10-03T12:17:30.172Z,2.20
2018-10-03T12:19:59.050Z,1.40
2018-10-03T12:22:27.885Z,1.50
2018-10-03T12:24:57.194Z,1.77
2018-10-03T12:27:26.057Z,1.40
2018-10-03T12:29:54.897Z,1.90
2018-10-03T12:32:23.690Z,1.80
2018-10-03T12:34:52.516Z,1.40
2018-10-03T12:37:21.630Z,1.93
2018-10-03T12:39:50.467Z,2.00
2018-10-03T12:42:19.306Z,1.47
2018-10-03T12:44:48.390Z,1.47
2018-10-03T12:47:17.486Z,1.93
2018-10-03T12:49:46.981Z,1.20
2018-10-03T12:52:16.293Z,1.13
2018-10-03T12:54:48.814Z,1.10
2018-10-03T12:57:17.653Z,1.30
2018-10-03T12:59:46.586Z,1.50
2018-10-03T13:02:15.620Z,1.07
2018-10-03T13:04:44.475Z,1.23
2018-10-03T13:07:13.334Z,1.33
2018-10-03T13:09:42.169Z,1.43
2018-10-03T13:12:11.002Z,1.30
2018-10-03T13:14:39.813Z,1.37
2018-10-03T13:17:08.637Z,1.43
2018-10-03T13:19:37.430Z,1.30
2018-10-03T13:22:07.168Z,1.00
2018-10-03T13:24:36.031Z,1.20
2018-10-03T13:27:04.792Z,1.60
2018-10-03T13:29:33.600Z,1.60
2018-10-03T13:32:02.399Z,1.83
2018-10-03T13:34:31.245Z,1.50
2018-10-03T13:37:00.030Z,1.80
2018-10-03T13:39:28.835Z,1.30
2018-10-03T13:41:57.654Z,1.27
2018-10-03T13:44:26.473Z,1.83
2018-10-03T13:46:55.274Z,1.43
2018-10-03T13:49:24.066Z,1.53
2018-10-03T13:51:52.868Z,1.73
2018-10-03T13:54:21.649Z,1.40
2018-10-03T13:56:50.441Z,1.37
2018-10-03T13:59:19.277Z,1.20
2018-10-03T14:01:48.121Z,1.00
2018-10-03T14:04:20.493Z,1.00
2018-10-03T14:06:49.269Z,1.23
2018-10-03T14:09:18.164Z,1.10
2018-10-03T14:11:46.978Z,0.83
2018-10-03T14:14:16.001Z,0.80
2018-10-03T14:16:44.803Z,1.87
2018-10-03T14:19:13.812Z,0.90
2018-10-03T14:21:42.768Z,1.23
2018-10-03T14:24:11.559Z,1.60
2018-10-03T14:26:40.469Z,1.27
2018-10-03T14:29:09.490Z,1.30
2018-10-03T14:31:38.306Z,1.30
2018-10-03T14:34:07.175Z,1.23
2018-10-03T14:36:36.117Z,0.83
2018-10-03T14:39:06.502Z,1.40
2018-10-03T14:41:35.301Z,1.30
2018-10-03T14:44:04.082Z,1.53
2018-10-03T14:46:32.899Z,1.50
2018-10-03T14:49:05.076Z,1.23
2018-10-03T14:51:34.057Z,0.90
2018-10-03T14:54:02.859Z,1.27
2018-10-03T14:56:31.648Z,1.57
2018-10-03T14:59:01.571Z,1.20
2018-10-03T15:01:30.982Z,1.00
2018-10-03T15:03:59.819Z,1.30
2018-10-03T15:06:28.646Z,1.27
2018-10-03T15:08:57.441Z,1.20
2018-10-03T15:11:26.242Z,1.20
2018-10-03T15:13:55.064Z,1.47
2018-10-03T15:16:23.946Z,1.40
2018-10-03T15:18:53.037Z,1.40
2018-10-03T15:21:21.915Z,1.30
2018-10-03T15:23:50.785Z,1.60
2018-10-03T15:26:19.632Z,1.30
2018-10-03T15:28:48.409Z,1.23
2018-10-03T15:31:17.248Z,1.70
2018-10-03T15:33:46.774Z,0.90
2018-10-03T15:36:15.726Z,1.30
2018-10-03T15:38:44.667Z,1.40
2018-10-03T15:41:13.492Z,1.43
2018-10-03T15:43:42.290Z,2.07
2018-10-03T15:46:11.134Z,1.53
2018-10-03T15:48:39.941Z,1.20
2018-10-03T15:51:08.911Z,1.57
2018-10-03T15:53:37.867Z,1.80
2018-10-03T15:56:06.818Z,1.20
2018-10-03T15:58:35.671Z,1.23
2018-10-03T16:01:04.542Z,1.03
2018-10-03T16:03:33.341Z,1.20
2018-10-03T16:06:02.137Z,1.80
2018-10-03T16:08:31.123Z,1.53
2018-10-03T16:10:59.926Z,1.70
2018-10-03T16:13:29.258Z,0.90
2018-10-03T16:15:58.031Z,1.07
2018-10-03T16:18:26.854Z,1.07
2018-10-03T16:20:55.685Z,1.43
2018-10-03T16:23:24.497Z,1.60
2018-10-03T16:25:53.332Z,1.30
2018-10-03T16:28:22.117Z,1.20
2018-10-03T16:30:51.105Z,1.30
2018-10-03T16:33:20.205Z,1.13
2018-10-03T16:35:48.997Z,1.80
2018-10-03T16:38:18.387Z,1.30
2018-10-03T16:40:47.214Z,1.37
2018-10-03T16:43:16.262Z,1.13
2018-10-03T16:45:45.177Z,1.40
2018-10-03T16:48:14.138Z,2.00
2018-10-03T16:50:43.222Z,1.47
2018-10-03T16:53:12.050Z,0.97
2018-10-03T16:55:40.838Z,1.50
2018-10-03T16:58:09.673Z,1.10
2018-10-03T17:00:38.550Z,1.33
2018-10-03T17:03:07.377Z,1.20
2018-10-03T17:05:36.209Z,1.50
2018-10-03T17:08:05.005Z,1.40
2018-10-03T17:10:33.789Z,1.80
2018-10-03T17:13:02.619Z,1.13
2018-10-03T17:15:31.579Z,2.60
2018-10-03T17:18:00.386Z,1.10
2018-10-03T17:20:31.550Z,1.40
2018-10-03T17:23:00.473Z,1.80
2018-10-03T17:25:29.245Z,1.73
2018-10-03T17:27:58.053Z,1.33
2018-10-03T17:30:27.962Z,1.77
2018-10-03T17:32:57.679Z,2.13
2018-10-03T17:35:26.531Z,1.37
2018-10-03T17:37:56.155Z,1.37
2018-10-03T17:40:25.186Z,2.00
2018-10-03T17:42:53.998Z,1.80
2018-10-03T17:45:22.827Z,2.03
2018-10-03T17:47:51.675Z,1.40
2018-10-03T17:50:20.472Z,1.77
2018-10-03T17:52:49.246Z,1.53
2018-10-03T17:55:18.057Z,1.63
2018-10-03T17:57:46.858Z,1.90
2018-10-03T18:00:15.682Z,1.50
2018-10-03T18:02:44.564Z,1.20
2018-10-03T18:05:13.412Z,1.60
2018-10-03T18:07:42.304Z,1.60
2018-10-03T18:10:11.110Z,1.63
2018-10-03T18:12:39.929Z,1.17
2018-10-03T18:15:08.828Z,1.67
2018-10-03T18:17:37.616Z,2.47
2018-10-03T18:20:06.443Z,1.63
2018-10-03T18:22:35.508Z,1.67
2018-10-03T18:25:04.423Z,1.10
2018-10-03T18:27:33.242Z,2.07
2018-10-03T18:30:02.190Z,1.60
2018-10-03T18:32:31.690Z,1.17
2018-10-03T18:35:00.562Z,1.70
2018-10-03T18:37:29.445Z,2.43
2018-10-03T18:39:58.480Z,1.53
2018-10-03T18:42:27.500Z,1.40
2018-10-03T18:44:56.308Z,2.13
2018-10-03T18:47:25.133Z,1.90
2018-10-03T18:49:53.983Z,1.57
2018-10-03T18:52:23.098Z,1.57
2018-10-03T18:54:51.949Z,1.87
2018-10-03T18:57:20.868Z,2.10
2018-10-03T18:59:49.690Z,2.00
2018-10-03T19:02:18.561Z,2.07
2018-10-03T19:04:47.487Z,1.90
2018-10-03T19:07:16.724Z,1.90
2018-10-03T19:09:45.505Z,2.00
2018-10-03T19:12:14.439Z,1.60
2018-10-03T19:14:43.263Z,1.33
2018-10-03T19:17:12.065Z,2.53
2018-10-03T19:19:41.099Z,2.07
2018-10-03T19:22:10.215Z,1.90
2018-10-03T19:24:39.002Z,1.67
2018-10-03T19:27:07.841Z,2.20
2018-10-03T19:29:36.664Z,1.63
2018-10-03T19:32:05.594Z,1.60
2018-10-03T19:34:34.406Z,2.20
2018-10-03T19:37:03.231Z,1.73
2018-10-03T19:39:32.082Z,1.83
2018-10-03T19:42:00.969Z,1.77
2018-10-03T19:44:29.729Z,1.57
2018-10-03T19:47:02.460Z,1.90
2018-10-03T19:49:31.493Z,1.97
2018-10-03T19:52:00.357Z,1.40
2018-10-03T19:54:29.190Z,1.50
2018-10-03T19:56:58.033Z,1.63
2018-10-03T19:59:26.922Z,1.60
2018-10-03T20:01:55.758Z,2.37
2018-10-03T20:04:26.583Z,1.73
2018-10-03T20:06:55.518Z,1.53
2018-10-03T20:09:24.421Z,1.80
2018-10-03T20:11:53.254Z,1.33
2018-10-03T20:14:22.090Z,1.50
2018-10-03T20:16:51.038Z,2.00
2018-10-03T20:19:19.928Z,1.70
2018-10-03T20:21:49.002Z,1.60
2018-10-03T20:24:17.967Z,1.50
2018-10-03T20:26:46.758Z,1.90
2018-10-03T20:29:15.562Z,2.13
2018-10-03T20:31:44.487Z,1.60
2018-10-03T20:34:13.296Z,1.80
2018-10-03T20:36:42.294Z,1.80
2018-10-03T20:39:11.218Z,1.73
2018-10-03T20:41:40.044Z,1.67
2018-10-03T20:44:08.864Z,2.20
2018-10-03T20:46:37.719Z,2.33
2018-10-03T20:49:06.610Z,1.77
2018-10-03T20:51:35.451Z,1.97
2018-10-03T20:54:04.258Z,2.20
2018-10-03T20:56:33.253Z,1.90
2018-10-03T20:59:02.120Z,2.27
2018-10-03T21:01:30.966Z,2.17
2018-10-03T21:03:59.806Z,2.00
2018-10-03T21:06:28.593Z,1.97
2018-10-03T21:08:57.458Z,1.80
2018-10-03T21:11:26.879Z,1.63
2018-10-03T21:13:56.329Z,1.43
2018-10-03T21:16:25.155Z,1.60
2018-10-03T21:18:53.978Z,1.90
2018-10-03T21:21:22.802Z,2.00
2018-10-03T21:23:51.614Z,1.70
2018-10-03T21:26:20.398Z,2.20
2018-10-03T21:28:49.204Z,1.80
2018-10-03T21:31:18.055Z,1.47
2018-10-03T21:33:48.897Z,1.57
2018-10-03T21:36:17.706Z,1.20
2018-10-03T21:38:46.532Z,1.50
2018-10-03T21:41:15.333Z,1.87
2018-10-03T21:43:44.264Z,1.50
2018-10-03T21:46:13.013Z,1.60
2018-10-03T21:48:41.990Z,1.57
2018-10-03T21:51:10.797Z,1.40
2018-10-03T21:53:39.606Z,1.33
2018-10-03T21:56:08.478Z,1.73
2018-10-03T21:58:37.559Z,2.40
2018-10-03T22:01:06.866Z,1.23
2018-10-03T22:03:35.824Z,1.40
2018-10-03T22:06:04.616Z,1.37
2018-10-03T22:08:33.598Z,1.73
2018-10-03T22:11:02.442Z,1.60
2018-10-03T22:13:31.271Z,1.63
2018-10-03T22:16:00.114Z,1.77
2018-10-03T22:18:29.158Z,1.30
2018-10-03T22:20:58.017Z,1.60
2018-10-03T22:23:26.823Z,1.33
2018-10-03T22:25:55.685Z,1.57
2018-10-03T22:28:25.195Z,1.37
2018-10-03T22:30:54.074Z,1.50
2018-10-03T22:33:22.885Z,1.33
2018-10-03T22:35:51.721Z,1.43
2018-10-03T22:38:20.570Z,1.90
2018-10-03T22:40:49.402Z,1.50
2018-10-03T22:43:18.211Z,1.57
2018-10-03T22:45:47.024Z,1.63
2018-10-03T22:48:16.003Z,1.47
2018-10-03T22:50:47.473Z,1.47
2018-10-03T22:53:16.757Z,2.13
2018-10-03T22:55:45.577Z,1.77
2018-10-03T22:58:14.503Z,1.47
2018-10-03T23:00:43.370Z,1.30
2018-10-03T23:03:12.202Z,1.90
2018-10-03T23:05:41.020Z,1.40
2018-10-03T23:08:09.817Z,1.57
2018-10-03T23:10:38.618Z,1.40
2018-10-03T23:13:07.434Z,1.67
2018-10-03T23:15:36.218Z,1.70
2018-10-03T23:18:05.042Z,1.70
2018-10-03T23:20:33.866Z,1.47
2018-10-03T23:23:02.738Z,1.27
2018-10-03T23:25:31.522Z,1.93
2018-10-03T23:28:00.329Z,1.57
2018-10-03T23:30:29.209Z,1.27
2018-10-03T23:32:58.175Z,1.47
2018-10-03T23:35:27.005Z,1.37
2018-10-03T23:37:55.854Z,1.47
2018-10-03T23:40:25.813Z,1.50
2018-10-03T23:42:54.661Z,1.67
2018-10-03T23:45:23.526Z,1.50
2018-10-03T23:47:52.351Z,1.57
2018-10-03T23:50:21.201Z,1.33
2018-10-03T23:52:50.104Z,1.43
2018-10-03T23:55:18.888Z,1.63
2018-10-03T23:57:47.732Z,1.10
